sensor_id;sensor_type;location;lat;lon;timestamp;P1;durP1;ratioP1;P2;durP2;ratioP2
56307;SDS011;42217;50.422;7.210;2023-02-28T00:00:16;4.60;;;3.13;;
56307;SDS011;42217;50.422;7.210;2023-02-28T00:02:43;3.57;;;3.30;;
56307;SDS011;42217;50.422;7.210;2023-02-28T00:05:10;2.90;;;2.70;;
56307;SDS011;42217;50.422;7.210;2023-02-28T00:07:38;4.00;;;2.97;;
56307;SDS011;42217;50.422;7.210;2023-02-28T00:10:07;4.13;;;3.83;;
56307;SDS011;42217;50.422;7.210;2023-02-28T00:12:35;4.37;;;4.07;;
56307;SDS011;42217;50.422;7.210;2023-02-28T00:15:04;3.73;;;3.47;;
56307;SDS011;42217;50.422;7.210;2023-02-28T00:17:31;6.33;;;4.03;;
56307;SDS011;42217;50.422;7.210;2023-02-28T00:19:57;3.20;;;3.00;;
56307;SDS011;42217;50.422;7.210;2023-02-28T00:22:35;3.30;;;3.10;;
56307;SDS011;42217;50.422;7.210;2023-02-28T00:25:01;3.13;;;2.93;;
56307;SDS011;42217;50.422;7.210;2023-02-28T00:27:28;3.67;;;3.37;;
56307;SDS011;42217;50.422;7.210;2023-02-28T00:29:54;3.27;;;3.00;;
56307;SDS011;42217;50.422;7.210;2023-02-28T00:32:20;5.20;;;3.80;;
56307;SDS011;42217;50.422;7.210;2023-02-28T00:34:46;11.90;;;3.57;;
56307;SDS011;42217;50.422;7.210;2023-02-28T00:37:11;3.77;;;3.57;;
56307;SDS011;42217;50.422;7.210;2023-02-28T00:39:37;3.43;;;3.17;;
56307;SDS011;42217;50.422;7.210;2023-02-28T00:42:04;3.20;;;3.00;;
56307;SDS011;42217;50.422;7.210;2023-02-28T00:44:31;3.07;;;2.87;;
56307;SDS011;42217;50.422;7.210;2023-02-28T00:46:57;3.83;;;3.57;;
56307;SDS011;42217;50.422;7.210;2023-02-28T00:49:24;3.83;;;3.53;;
56307;SDS011;42217;50.422;7.210;2023-02-28T00:51:50;6.33;;;3.20;;
56307;SDS011;42217;50.422;7.210;2023-02-28T00:54:17;4.23;;;3.80;;
56307;SDS011;42217;50.422;7.210;2023-02-28T00:56:43;3.70;;;3.50;;
56307;SDS011;42217;50.422;7.210;2023-02-28T00:59:08;3.43;;;3.13;;
56307;SDS011;42217;50.422;7.210;2023-02-28T01:01:34;4.03;;;3.73;;
56307;SDS011;42217;50.422;7.210;2023-02-28T01:04:00;3.37;;;3.07;;
56307;SDS011;42217;50.422;7.210;2023-02-28T01:06:26;3.67;;;3.43;;
56307;SDS011;42217;50.422;7.210;2023-02-28T01:08:51;4.77;;;4.37;;
56307;SDS011;42217;50.422;7.210;2023-02-28T01:11:17;4.60;;;3.87;;
56307;SDS011;42217;50.422;7.210;2023-02-28T01:13:44;3.70;;;3.43;;
56307;SDS011;42217;50.422;7.210;2023-02-28T01:16:11;4.10;;;3.57;;
56307;SDS011;42217;50.422;7.210;2023-02-28T01:18:37;3.53;;;3.27;;
56307;SDS011;42217;50.422;7.210;2023-02-28T01:21:04;4.27;;;3.87;;
56307;SDS011;42217;50.422;7.210;2023-02-28T01:23:31;3.50;;;3.20;;
56307;SDS011;42217;50.422;7.210;2023-02-28T01:25:57;3.90;;;3.70;;
56307;SDS011;42217;50.422;7.210;2023-02-28T01:28:22;9.33;;;3.20;;
56307;SDS011;42217;50.422;7.210;2023-02-28T01:30:49;3.53;;;3.30;;
56307;SDS011;42217;50.422;7.210;2023-02-28T01:33:15;2.97;;;2.87;;
56307;SDS011;42217;50.422;7.210;2023-02-28T01:35:41;8.17;;;3.63;;
56307;SDS011;42217;50.422;7.210;2023-02-28T01:38:06;4.43;;;4.03;;
56307;SDS011;42217;50.422;7.210;2023-02-28T01:40:32;3.93;;;3.73;;
56307;SDS011;42217;50.422;7.210;2023-02-28T01:42:58;3.90;;;3.60;;
56307;SDS011;42217;50.422;7.210;2023-02-28T01:45:27;4.10;;;3.70;;
56307;SDS011;42217;50.422;7.210;2023-02-28T01:47:55;3.60;;;3.40;;
56307;SDS011;42217;50.422;7.210;2023-02-28T01:50:27;4.90;;;3.83;;
56307;SDS011;42217;50.422;7.210;2023-02-28T01:52:55;4.20;;;3.90;;
56307;SDS011;42217;50.422;7.210;2023-02-28T01:55:25;3.07;;;2.97;;
56307;SDS011;42217;50.422;7.210;2023-02-28T01:57:55;4.63;;;4.23;;
56307;SDS011;42217;50.422;7.210;2023-02-28T02:00:24;3.73;;;3.43;;
56307;SDS011;42217;50.422;7.210;2023-02-28T02:02:58;3.40;;;3.23;;
56307;SDS011;42217;50.422;7.210;2023-02-28T02:05:27;3.77;;;3.50;;
56307;SDS011;42217;50.422;7.210;2023-02-28T02:07:56;3.90;;;3.60;;
56307;SDS011;42217;50.422;7.210;2023-02-28T02:10:31;4.40;;;4.00;;
56307;SDS011;42217;50.422;7.210;2023-02-28T02:16:04;6.27;;;4.03;;
56307;SDS011;42217;50.422;7.210;2023-02-28T02:18:51;4.87;;;4.50;;
56307;SDS011;42217;50.422;7.210;2023-02-28T02:42:28;3.77;;;3.50;;
56307;SDS011;42217;50.422;7.210;2023-02-28T02:45:08;8.27;;;3.73;;
56307;SDS011;42217;50.422;7.210;2023-02-28T02:47:37;5.73;;;4.50;;
56307;SDS011;42217;50.422;7.210;2023-02-28T02:50:05;3.77;;;3.57;;
56307;SDS011;42217;50.422;7.210;2023-02-28T02:52:38;4.10;;;3.80;;
56307;SDS011;42217;50.422;7.210;2023-02-28T02:55:07;8.57;;;5.00;;
56307;SDS011;42217;50.422;7.210;2023-02-28T02:57:41;8.83;;;4.13;;
56307;SDS011;42217;50.422;7.210;2023-02-28T03:00:09;4.00;;;3.70;;
56307;SDS011;42217;50.422;7.210;2023-02-28T03:02:36;4.47;;;4.17;;
56307;SDS011;42217;50.422;7.210;2023-02-28T03:05:08;3.73;;;3.53;;
56307;SDS011;42217;50.422;7.210;2023-02-28T03:07:42;3.57;;;3.37;;
56307;SDS011;42217;50.422;7.210;2023-02-28T03:10:30;10.77;;;4.10;;
56307;SDS011;42217;50.422;7.210;2023-02-28T03:18:43;4.30;;;3.90;;
56307;SDS011;42217;50.422;7.210;2023-02-28T03:24:12;4.00;;;3.70;;
56307;SDS011;42217;50.422;7.210;2023-02-28T03:26:54;6.93;;;4.20;;
56307;SDS011;42217;50.422;7.210;2023-02-28T03:31:59;4.28;;;4.07;;
56307;SDS011;42217;50.422;7.210;2023-02-28T03:34:37;5.80;;;4.27;;
56307;SDS011;42217;50.422;7.210;2023-02-28T03:37:11;4.70;;;3.93;;
56307;SDS011;42217;50.422;7.210;2023-02-28T03:39:44;4.20;;;3.90;;
56307;SDS011;42217;50.422;7.210;2023-02-28T03:42:19;4.27;;;3.97;;
56307;SDS011;42217;50.422;7.210;2023-02-28T03:47:21;3.90;;;3.60;;
56307;SDS011;42217;50.422;7.210;2023-02-28T03:50:08;11.30;;;4.80;;
56307;SDS011;42217;50.422;7.210;2023-02-28T03:53:47;4.47;;;4.07;;
56307;SDS011;42217;50.422;7.210;2023-02-28T03:55:56;4.67;;;4.27;;
56307;SDS011;42217;50.422;7.210;2023-02-28T03:58:44;6.70;;;3.57;;
56307;SDS011;42217;50.422;7.210;2023-02-28T04:01:20;3.83;;;3.58;;
56307;SDS011;42217;50.422;7.210;2023-02-28T04:03:50;3.50;;;3.20;;
56307;SDS011;42217;50.422;7.210;2023-02-28T04:06:17;4.07;;;3.77;;
56307;SDS011;42217;50.422;7.210;2023-02-28T04:08:45;9.30;;;3.67;;
56307;SDS011;42217;50.422;7.210;2023-02-28T04:11:33;7.17;;;5.20;;
56307;SDS011;42217;50.422;7.210;2023-02-28T04:14:05;5.32;;;4.80;;
56307;SDS011;42217;50.422;7.210;2023-02-28T04:16:33;3.60;;;3.40;;
56307;SDS011;42217;50.422;7.210;2023-02-28T04:19:00;3.63;;;3.43;;
56307;SDS011;42217;50.422;7.210;2023-02-28T04:21:28;4.60;;;4.07;;
56307;SDS011;42217;50.422;7.210;2023-02-28T04:23:54;5.00;;;4.50;;
56307;SDS011;42217;50.422;7.210;2023-02-28T04:26:20;4.20;;;3.90;;
56307;SDS011;42217;50.422;7.210;2023-02-28T04:28:46;4.57;;;4.27;;
56307;SDS011;42217;50.422;7.210;2023-02-28T04:31:13;5.80;;;4.20;;
56307;SDS011;42217;50.422;7.210;2023-02-28T04:33:38;4.57;;;4.17;;
56307;SDS011;42217;50.422;7.210;2023-02-28T04:36:05;5.13;;;4.83;;
56307;SDS011;42217;50.422;7.210;2023-02-28T04:38:33;4.13;;;3.83;;
56307;SDS011;42217;50.422;7.210;2023-02-28T04:41:01;5.50;;;4.97;;
56307;SDS011;42217;50.422;7.210;2023-02-28T04:43:27;3.60;;;3.40;;
56307;SDS011;42217;50.422;7.210;2023-02-28T04:45:54;4.87;;;4.43;;
56307;SDS011;42217;50.422;7.210;2023-02-28T04:48:33;4.53;;;4.23;;
56307;SDS011;42217;50.422;7.210;2023-02-28T04:51:02;6.30;;;5.47;;
56307;SDS011;42217;50.422;7.210;2023-02-28T04:53:32;10.10;;;5.40;;
56307;SDS011;42217;50.422;7.210;2023-02-28T04:55:58;4.70;;;4.33;;
56307;SDS011;42217;50.422;7.210;2023-02-28T04:58:24;5.20;;;4.70;;
56307;SDS011;42217;50.422;7.210;2023-02-28T05:00:51;5.23;;;4.67;;
56307;SDS011;42217;50.422;7.210;2023-02-28T05:03:17;4.90;;;4.50;;
56307;SDS011;42217;50.422;7.210;2023-02-28T05:05:43;4.73;;;4.43;;
56307;SDS011;42217;50.422;7.210;2023-02-28T05:08:09;5.27;;;4.70;;
56307;SDS011;42217;50.422;7.210;2023-02-28T05:10:35;5.33;;;4.97;;
56307;SDS011;42217;50.422;7.210;2023-02-28T05:13:00;5.43;;;4.73;;
56307;SDS011;42217;50.422;7.210;2023-02-28T05:15:27;7.20;;;4.97;;
56307;SDS011;42217;50.422;7.210;2023-02-28T05:17:53;9.23;;;5.93;;
56307;SDS011;42217;50.422;7.210;2023-02-28T05:20:19;6.60;;;6.00;;
56307;SDS011;42217;50.422;7.210;2023-02-28T05:22:45;6.23;;;5.67;;
56307;SDS011;42217;50.422;7.210;2023-02-28T05:25:18;4.40;;;4.00;;
56307;SDS011;42217;50.422;7.210;2023-02-28T05:27:47;7.03;;;3.93;;
56307;SDS011;42217;50.422;7.210;2023-02-28T05:30:12;4.33;;;4.13;;
56307;SDS011;42217;50.422;7.210;2023-02-28T05:32:39;6.27;;;5.80;;
56307;SDS011;42217;50.422;7.210;2023-02-28T05:35:08;7.03;;;4.37;;
56307;SDS011;42217;50.422;7.210;2023-02-28T05:37:35;4.00;;;3.80;;
56307;SDS011;42217;50.422;7.210;2023-02-28T05:40:01;3.73;;;3.53;;
56307;SDS011;42217;50.422;7.210;2023-02-28T05:42:31;10.37;;;4.30;;
56307;SDS011;42217;50.422;7.210;2023-02-28T05:44:57;5.77;;;5.20;;
56307;SDS011;42217;50.422;7.210;2023-02-28T05:47:22;5.10;;;4.70;;
56307;SDS011;42217;50.422;7.210;2023-02-28T05:49:48;8.63;;;5.33;;
56307;SDS011;42217;50.422;7.210;2023-02-28T05:52:14;4.80;;;4.50;;
56307;SDS011;42217;50.422;7.210;2023-02-28T05:54:40;4.70;;;4.40;;
56307;SDS011;42217;50.422;7.210;2023-02-28T05:57:06;4.70;;;4.40;;
56307;SDS011;42217;50.422;7.210;2023-02-28T05:59:31;4.50;;;4.10;;
56307;SDS011;42217;50.422;7.210;2023-02-28T06:01:58;9.10;;;7.90;;
56307;SDS011;42217;50.422;7.210;2023-02-28T06:04:23;18.77;;;8.73;;
56307;SDS011;42217;50.422;7.210;2023-02-28T06:06:49;15.83;;;7.07;;
56307;SDS011;42217;50.422;7.210;2023-02-28T06:09:16;12.83;;;8.00;;
56307;SDS011;42217;50.422;7.210;2023-02-28T06:11:43;5.57;;;5.13;;
56307;SDS011;42217;50.422;7.210;2023-02-28T06:14:14;6.07;;;5.67;;
56307;SDS011;42217;50.422;7.210;2023-02-28T06:16:41;5.18;;;4.78;;
56307;SDS011;42217;50.422;7.210;2023-02-28T06:19:08;12.20;;;4.43;;
56307;SDS011;42217;50.422;7.210;2023-02-28T06:21:34;4.63;;;4.33;;
56307;SDS011;42217;50.422;7.210;2023-02-28T06:24:01;13.87;;;5.63;;
56307;SDS011;42217;50.422;7.210;2023-02-28T06:26:26;4.90;;;3.97;;
56307;SDS011;42217;50.422;7.210;2023-02-28T06:28:52;10.70;;;4.87;;
56307;SDS011;42217;50.422;7.210;2023-02-28T06:31:18;10.83;;;8.77;;
56307;SDS011;42217;50.422;7.210;2023-02-28T06:33:44;11.20;;;7.63;;
56307;SDS011;42217;50.422;7.210;2023-02-28T06:36:11;6.97;;;6.47;;
56307;SDS011;42217;50.422;7.210;2023-02-28T06:38:38;10.40;;;6.93;;
56307;SDS011;42217;50.422;7.210;2023-02-28T06:41:05;5.97;;;5.50;;
56307;SDS011;42217;50.422;7.210;2023-02-28T06:43:33;19.10;;;10.67;;
56307;SDS011;42217;50.422;7.210;2023-02-28T06:46:02;16.07;;;11.43;;
56307;SDS011;42217;50.422;7.210;2023-02-28T06:48:29;19.67;;;10.20;;
56307;SDS011;42217;50.422;7.210;2023-02-28T06:51:04;14.17;;;9.53;;
56307;SDS011;42217;50.422;7.210;2023-02-28T06:53:35;30.67;;;16.97;;
56307;SDS011;42217;50.422;7.210;2023-02-28T06:56:05;9.83;;;8.47;;
56307;SDS011;42217;50.422;7.210;2023-02-28T06:58:33;23.63;;;9.37;;
56307;SDS011;42217;50.422;7.210;2023-02-28T07:00:59;9.20;;;8.07;;
56307;SDS011;42217;50.422;7.210;2023-02-28T07:03:25;10.10;;;7.77;;
56307;SDS011;42217;50.422;7.210;2023-02-28T07:05:50;10.73;;;8.47;;
56307;SDS011;42217;50.422;7.210;2023-02-28T07:08:16;9.03;;;7.73;;
56307;SDS011;42217;50.422;7.210;2023-02-28T07:10:42;9.57;;;8.60;;
56307;SDS011;42217;50.422;7.210;2023-02-28T07:13:09;10.97;;;8.80;;
56307;SDS011;42217;50.422;7.210;2023-02-28T07:15:35;38.17;;;13.67;;
56307;SDS011;42217;50.422;7.210;2023-02-28T07:18:02;47.23;;;20.40;;
56307;SDS011;42217;50.422;7.210;2023-02-28T07:20:28;47.50;;;19.77;;
56307;SDS011;42217;50.422;7.210;2023-02-28T07:22:54;30.13;;;15.30;;
56307;SDS011;42217;50.422;7.210;2023-02-28T07:25:24;14.20;;;10.63;;
56307;SDS011;42217;50.422;7.210;2023-02-28T07:27:53;7.20;;;5.10;;
56307;SDS011;42217;50.422;7.210;2023-02-28T07:30:19;18.13;;;8.87;;
56307;SDS011;42217;50.422;7.210;2023-02-28T07:32:45;16.00;;;8.83;;
56307;SDS011;42217;50.422;7.210;2023-02-28T07:35:11;12.97;;;8.73;;
56307;SDS011;42217;50.422;7.210;2023-02-28T07:37:37;9.03;;;8.13;;
56307;SDS011;42217;50.422;7.210;2023-02-28T07:40:04;13.17;;;8.57;;
56307;SDS011;42217;50.422;7.210;2023-02-28T07:42:33;7.27;;;5.77;;
56307;SDS011;42217;50.422;7.210;2023-02-28T07:45:03;11.70;;;6.47;;
56307;SDS011;42217;50.422;7.210;2023-02-28T07:47:29;6.80;;;6.20;;
56307;SDS011;42217;50.422;7.210;2023-02-28T07:49:56;6.10;;;5.67;;
56307;SDS011;42217;50.422;7.210;2023-02-28T07:52:22;8.07;;;6.03;;
56307;SDS011;42217;50.422;7.210;2023-02-28T07:54:49;6.77;;;5.63;;
56307;SDS011;42217;50.422;7.210;2023-02-28T07:57:15;7.30;;;6.17;;
56307;SDS011;42217;50.422;7.210;2023-02-28T07:59:41;6.40;;;5.17;;
56307;SDS011;42217;50.422;7.210;2023-02-28T08:02:08;8.37;;;5.43;;
56307;SDS011;42217;50.422;7.210;2023-02-28T08:04:37;6.67;;;5.50;;
56307;SDS011;42217;50.422;7.210;2023-02-28T08:07:03;7.40;;;5.97;;
56307;SDS011;42217;50.422;7.210;2023-02-28T08:09:28;10.30;;;5.83;;
56307;SDS011;42217;50.422;7.210;2023-02-28T08:11:54;6.10;;;5.47;;
56307;SDS011;42217;50.422;7.210;2023-02-28T08:14:20;8.63;;;5.80;;
56307;SDS011;42217;50.422;7.210;2023-02-28T08:16:46;4.77;;;4.30;;
56307;SDS011;42217;50.422;7.210;2023-02-28T08:19:11;5.13;;;4.73;;
56307;SDS011;42217;50.422;7.210;2023-02-28T08:21:37;6.17;;;5.00;;
56307;SDS011;42217;50.422;7.210;2023-02-28T08:24:06;9.33;;;5.53;;
56307;SDS011;42217;50.422;7.210;2023-02-28T08:26:32;5.50;;;5.00;;
56307;SDS011;42217;50.422;7.210;2023-02-28T08:28:58;5.60;;;5.10;;
56307;SDS011;42217;50.422;7.210;2023-02-28T08:31:24;4.43;;;4.03;;
56307;SDS011;42217;50.422;7.210;2023-02-28T08:33:49;4.40;;;4.10;;
56307;SDS011;42217;50.422;7.210;2023-02-28T08:36:18;4.97;;;4.50;;
56307;SDS011;42217;50.422;7.210;2023-02-28T08:38:44;6.73;;;4.13;;
56307;SDS011;42217;50.422;7.210;2023-02-28T08:41:11;8.60;;;5.57;;
56307;SDS011;42217;50.422;7.210;2023-02-28T08:43:38;4.87;;;4.57;;
56307;SDS011;42217;50.422;7.210;2023-02-28T08:46:05;8.23;;;6.03;;
56307;SDS011;42217;50.422;7.210;2023-02-28T08:48:32;7.13;;;6.43;;
56307;SDS011;42217;50.422;7.210;2023-02-28T08:51:00;8.93;;;7.83;;
56307;SDS011;42217;50.422;7.210;2023-02-28T08:53:28;4.83;;;4.43;;
56307;SDS011;42217;50.422;7.210;2023-02-28T08:56:04;7.83;;;6.67;;
56307;SDS011;42217;50.422;7.210;2023-02-28T08:58:32;8.40;;;7.60;;
56307;SDS011;42217;50.422;7.210;2023-02-28T09:00:59;11.83;;;8.10;;
56307;SDS011;42217;50.422;7.210;2023-02-28T09:03:25;16.97;;;9.87;;
56307;SDS011;42217;50.422;7.210;2023-02-28T09:05:59;15.77;;;8.53;;
56307;SDS011;42217;50.422;7.210;2023-02-28T09:08:26;5.87;;;5.30;;
56307;SDS011;42217;50.422;7.210;2023-02-28T09:10:53;24.77;;;13.97;;
56307;SDS011;42217;50.422;7.210;2023-02-28T09:13:21;13.07;;;8.77;;
56307;SDS011;42217;50.422;7.210;2023-02-28T09:15:48;5.80;;;5.17;;
56307;SDS011;42217;50.422;7.210;2023-02-28T09:18:13;7.30;;;5.03;;
56307;SDS011;42217;50.422;7.210;2023-02-28T09:20:39;12.17;;;9.03;;
56307;SDS011;42217;50.422;7.210;2023-02-28T09:23:06;10.13;;;6.43;;
56307;SDS011;42217;50.422;7.210;2023-02-28T09:25:33;12.67;;;7.83;;
56307;SDS011;42217;50.422;7.210;2023-02-28T09:27:59;17.50;;;10.00;;
56307;SDS011;42217;50.422;7.210;2023-02-28T09:30:24;4.60;;;4.23;;
56307;SDS011;42217;50.422;7.210;2023-02-28T09:32:50;6.10;;;3.77;;
56307;SDS011;42217;50.422;7.210;2023-02-28T09:35:20;3.90;;;3.60;;
56307;SDS011;42217;50.422;7.210;2023-02-28T09:37:48;5.33;;;4.93;;
56307;SDS011;42217;50.422;7.210;2023-02-28T09:40:16;4.17;;;3.77;;
56307;SDS011;42217;50.422;7.210;2023-02-28T09:42:45;3.93;;;3.57;;
56307;SDS011;42217;50.422;7.210;2023-02-28T09:45:19;10.73;;;3.40;;
56307;SDS011;42217;50.422;7.210;2023-02-28T09:47:47;8.23;;;3.27;;
56307;SDS011;42217;50.422;7.210;2023-02-28T09:52:58;3.42;;;3.22;;
56307;SDS011;42217;50.422;7.210;2023-02-28T09:55:30;3.30;;;3.10;;
56307;SDS011;42217;50.422;7.210;2023-02-28T09:58:01;3.13;;;2.93;;
56307;SDS011;42217;50.422;7.210;2023-02-28T10:00:32;3.10;;;2.90;;
56307;SDS011;42217;50.422;7.210;2023-02-28T10:11:22;4.23;;;3.67;;
56307;SDS011;42217;50.422;7.210;2023-02-28T10:13:56;4.50;;;3.17;;
56307;SDS011;42217;50.422;7.210;2023-02-28T10:16:35;4.07;;;3.37;;
56307;SDS011;42217;50.422;7.210;2023-02-28T10:22:01;6.20;;;3.70;;
56307;SDS011;42217;50.422;7.210;2023-02-28T10:27:17;3.37;;;3.07;;
56307;SDS011;42217;50.422;7.210;2023-02-28T10:29:49;3.07;;;2.70;;
56307;SDS011;42217;50.422;7.210;2023-02-28T10:32:49;3.33;;;3.03;;
56307;SDS011;42217;50.422;7.210;2023-02-28T10:37:37;2.80;;;2.60;;
56307;SDS011;42217;50.422;7.210;2023-02-28T10:40:04;3.77;;;3.20;;
56307;SDS011;42217;50.422;7.210;2023-02-28T10:42:31;5.77;;;3.20;;
56307;SDS011;42217;50.422;7.210;2023-02-28T10:47:35;3.33;;;3.03;;
56307;SDS011;42217;50.422;7.210;2023-02-28T10:51:05;3.83;;;3.10;;
56307;SDS011;42217;50.422;7.210;2023-02-28T10:55:56;4.93;;;3.37;;
56307;SDS011;42217;50.422;7.210;2023-02-28T10:58:23;4.23;;;2.67;;
56307;SDS011;42217;50.422;7.210;2023-02-28T11:00:51;4.53;;;3.50;;
56307;SDS011;42217;50.422;7.210;2023-02-28T11:03:25;3.53;;;2.67;;
56307;SDS011;42217;50.422;7.210;2023-02-28T11:05:55;5.10;;;3.53;;
56307;SDS011;42217;50.422;7.210;2023-02-28T11:08:22;3.37;;;2.63;;
56307;SDS011;42217;50.422;7.210;2023-02-28T11:10:48;3.33;;;3.03;;
56307;SDS011;42217;50.422;7.210;2023-02-28T11:13:21;3.07;;;2.77;;
56307;SDS011;42217;50.422;7.210;2023-02-28T11:15:54;3.80;;;3.30;;
56307;SDS011;42217;50.422;7.210;2023-02-28T11:18:23;5.00;;;3.83;;
56307;SDS011;42217;50.422;7.210;2023-02-28T11:20:55;4.93;;;3.03;;
56307;SDS011;42217;50.422;7.210;2023-02-28T11:23:24;5.27;;;3.10;;
56307;SDS011;42217;50.422;7.210;2023-02-28T11:25:52;7.90;;;3.40;;
56307;SDS011;42217;50.422;7.210;2023-02-28T11:31:04;3.93;;;3.20;;
56307;SDS011;42217;50.422;7.210;2023-02-28T11:36:12;7.27;;;3.50;;
56307;SDS011;42217;50.422;7.210;2023-02-28T11:38:55;3.90;;;3.47;;
56307;SDS011;42217;50.422;7.210;2023-02-28T11:41:31;6.43;;;3.87;;
56307;SDS011;42217;50.422;7.210;2023-02-28T11:46:52;4.93;;;3.37;;
56307;SDS011;42217;50.422;7.210;2023-02-28T11:49:43;4.30;;;4.00;;
56307;SDS011;42217;50.422;7.210;2023-02-28T12:11:55;3.77;;;3.47;;
56307;SDS011;42217;50.422;7.210;2023-02-28T12:17:27;4.57;;;3.87;;
56307;SDS011;42217;50.422;7.210;2023-02-28T12:20:12;5.03;;;3.57;;
56307;SDS011;42217;50.422;7.210;2023-02-28T12:25:49;3.72;;;3.40;;
56307;SDS011;42217;50.422;7.210;2023-02-28T12:28:35;3.27;;;2.97;;
56307;SDS011;42217;50.422;7.210;2023-02-28T12:31:16;3.50;;;3.20;;
56307;SDS011;42217;50.422;7.210;2023-02-28T12:33:45;3.67;;;3.43;;
56307;SDS011;42217;50.422;7.210;2023-02-28T12:36:16;3.53;;;3.23;;
56307;SDS011;42217;50.422;7.210;2023-02-28T12:38:54;3.80;;;3.37;;
56307;SDS011;42217;50.422;7.210;2023-02-28T12:41:42;3.30;;;2.90;;
56307;SDS011;42217;50.422;7.210;2023-02-28T12:46:51;5.40;;;3.90;;
56307;SDS011;42217;50.422;7.210;2023-02-28T12:49:34;4.23;;;3.83;;
56307;SDS011;42217;50.422;7.210;2023-02-28T12:52:04;5.00;;;3.43;;
56307;SDS011;42217;50.422;7.210;2023-02-28T12:55:33;5.10;;;3.03;;
56307;SDS011;42217;50.422;7.210;2023-02-28T12:57:56;4.37;;;3.60;;
56307;SDS011;42217;50.422;7.210;2023-02-28T13:00:38;5.27;;;3.13;;
56307;SDS011;42217;50.422;7.210;2023-02-28T13:04:12;3.63;;;3.33;;
56307;SDS011;42217;50.422;7.210;2023-02-28T13:09:15;8.93;;;3.37;;
56307;SDS011;42217;50.422;7.210;2023-02-28T13:11:43;3.63;;;3.20;;
56307;SDS011;42217;50.422;7.210;2023-02-28T13:17:10;4.20;;;3.77;;
56307;SDS011;42217;50.422;7.210;2023-02-28T13:19:55;3.17;;;2.87;;
56307;SDS011;42217;50.422;7.210;2023-02-28T13:22:37;3.83;;;2.90;;
56307;SDS011;42217;50.422;7.210;2023-02-28T13:27:52;4.43;;;3.03;;
56307;SDS011;42217;50.422;7.210;2023-02-28T13:47:23;3.20;;;2.93;;
56307;SDS011;42217;50.422;7.210;2023-02-28T13:52:33;4.27;;;3.33;;
56307;SDS011;42217;50.422;7.210;2023-02-28T14:07:59;3.87;;;3.43;;
56307;SDS011;42217;50.422;7.210;2023-02-28T14:10:30;3.50;;;2.90;;
56307;SDS011;42217;50.422;7.210;2023-02-28T14:13:02;3.77;;;3.47;;
56307;SDS011;42217;50.422;7.210;2023-02-28T14:18:19;3.53;;;3.23;;
56307;SDS011;42217;50.422;7.210;2023-02-28T14:20:47;5.63;;;3.53;;
56307;SDS011;42217;50.422;7.210;2023-02-28T14:23:31;3.83;;;3.47;;
56307;SDS011;42217;50.422;7.210;2023-02-28T14:31:36;3.93;;;3.40;;
56307;SDS011;42217;50.422;7.210;2023-02-28T14:34:15;5.70;;;3.80;;
56307;SDS011;42217;50.422;7.210;2023-02-28T14:36:45;4.33;;;3.40;;
56307;SDS011;42217;50.422;7.210;2023-02-28T14:39:13;4.97;;;3.33;;
56307;SDS011;42217;50.422;7.210;2023-02-28T14:41:45;3.50;;;3.03;;
56307;SDS011;42217;50.422;7.210;2023-02-28T14:44:19;3.40;;;2.37;;
56307;SDS011;42217;50.422;7.210;2023-02-28T14:46:50;3.03;;;2.80;;
56307;SDS011;42217;50.422;7.210;2023-02-28T14:49:27;2.63;;;2.43;;
56307;SDS011;42217;50.422;7.210;2023-02-28T14:52:15;3.90;;;2.50;;
56307;SDS011;42217;50.422;7.210;2023-02-28T14:54:51;2.70;;;2.50;;
56307;SDS011;42217;50.422;7.210;2023-02-28T14:57:29;5.47;;;2.67;;
56307;SDS011;42217;50.422;7.210;2023-02-28T15:00:13;7.20;;;3.23;;
56307;SDS011;42217;50.422;7.210;2023-02-28T15:02:42;4.03;;;2.90;;
56307;SDS011;42217;50.422;7.210;2023-02-28T15:07:43;4.13;;;3.17;;
56307;SDS011;42217;50.422;7.210;2023-02-28T15:12:41;4.00;;;3.30;;
56307;SDS011;42217;50.422;7.210;2023-02-28T15:15:14;6.55;;;3.15;;
56307;SDS011;42217;50.422;7.210;2023-02-28T15:17:42;4.10;;;2.85;;
56307;SDS011;42217;50.422;7.210;2023-02-28T15:20:12;3.33;;;3.03;;
56307;SDS011;42217;50.422;7.210;2023-02-28T15:22:40;4.97;;;3.27;;
56307;SDS011;42217;50.422;7.210;2023-02-28T15:25:06;4.00;;;3.03;;
56307;SDS011;42217;50.422;7.210;2023-02-28T15:27:35;4.18;;;2.75;;
56307;SDS011;42217;50.422;7.210;2023-02-28T15:30:08;3.45;;;3.15;;
56307;SDS011;42217;50.422;7.210;2023-02-28T15:32:42;5.33;;;3.03;;
56307;SDS011;42217;50.422;7.210;2023-02-28T15:40:43;3.90;;;3.10;;
56307;SDS011;42217;50.422;7.210;2023-02-28T15:43:18;3.70;;;3.10;;
56307;SDS011;42217;50.422;7.210;2023-02-28T15:45:49;3.90;;;3.20;;
56307;SDS011;42217;50.422;7.210;2023-02-28T15:48:18;4.90;;;2.90;;
56307;SDS011;42217;50.422;7.210;2023-02-28T15:50:47;3.20;;;2.90;;
56307;SDS011;42217;50.422;7.210;2023-02-28T15:53:26;3.13;;;2.83;;
56307;SDS011;42217;50.422;7.210;2023-02-28T15:56:01;4.00;;;3.60;;
56307;SDS011;42217;50.422;7.210;2023-02-28T15:58:29;4.47;;;3.70;;
56307;SDS011;42217;50.422;7.210;2023-02-28T16:01:16;6.13;;;4.17;;
56307;SDS011;42217;50.422;7.210;2023-02-28T16:03:48;4.97;;;3.60;;
56307;SDS011;42217;50.422;7.210;2023-02-28T16:08:42;4.30;;;2.83;;
56307;SDS011;42217;50.422;7.210;2023-02-28T16:11:11;3.43;;;3.13;;
56307;SDS011;42217;50.422;7.210;2023-02-28T16:13:36;5.77;;;4.10;;
56307;SDS011;42217;50.422;7.210;2023-02-28T16:16:02;5.63;;;3.53;;
56307;SDS011;42217;50.422;7.210;2023-02-28T16:18:28;5.83;;;4.17;;
56307;SDS011;42217;50.422;7.210;2023-02-28T16:20:54;5.67;;;3.70;;
56307;SDS011;42217;50.422;7.210;2023-02-28T16:23:20;4.57;;;3.13;;
56307;SDS011;42217;50.422;7.210;2023-02-28T16:25:45;5.50;;;3.63;;
56307;SDS011;42217;50.422;7.210;2023-02-28T16:28:22;3.40;;;3.10;;
56307;SDS011;42217;50.422;7.210;2023-02-28T16:30:56;4.73;;;4.17;;
56307;SDS011;42217;50.422;7.210;2023-02-28T16:33:22;4.67;;;4.17;;
56307;SDS011;42217;50.422;7.210;2023-02-28T16:35:47;6.13;;;4.17;;
56307;SDS011;42217;50.422;7.210;2023-02-28T16:38:13;5.40;;;3.77;;
56307;SDS011;42217;50.422;7.210;2023-02-28T16:40:39;4.20;;;3.67;;
56307;SDS011;42217;50.422;7.210;2023-02-28T16:43:07;4.97;;;4.10;;
56307;SDS011;42217;50.422;7.210;2023-02-28T16:48:03;5.37;;;4.50;;
56307;SDS011;42217;50.422;7.210;2023-02-28T16:50:29;8.50;;;3.90;;
56307;SDS011;42217;50.422;7.210;2023-02-28T16:52:57;7.77;;;5.00;;
56307;SDS011;42217;50.422;7.210;2023-02-28T16:55:23;5.43;;;3.97;;
56307;SDS011;42217;50.422;7.210;2023-02-28T16:57:52;5.87;;;4.23;;
56307;SDS011;42217;50.422;7.210;2023-02-28T17:00:20;5.80;;;4.97;;
56307;SDS011;42217;50.422;7.210;2023-02-28T17:02:46;4.07;;;3.70;;
56307;SDS011;42217;50.422;7.210;2023-02-28T17:05:12;4.77;;;4.07;;
56307;SDS011;42217;50.422;7.210;2023-02-28T17:07:40;3.67;;;3.37;;
56307;SDS011;42217;50.422;7.210;2023-02-28T17:10:20;7.60;;;4.70;;
56307;SDS011;42217;50.422;7.210;2023-02-28T17:12:48;4.50;;;3.73;;
56307;SDS011;42217;50.422;7.210;2023-02-28T17:15:14;7.00;;;5.10;;
56307;SDS011;42217;50.422;7.210;2023-02-28T17:17:41;9.00;;;5.10;;
56307;SDS011;42217;50.422;7.210;2023-02-28T17:20:18;5.23;;;4.37;;
56307;SDS011;42217;50.422;7.210;2023-02-28T17:22:49;8.30;;;4.13;;
56307;SDS011;42217;50.422;7.210;2023-02-28T17:25:15;5.50;;;4.83;;
56307;SDS011;42217;50.422;7.210;2023-02-28T17:27:42;4.13;;;3.80;;
56307;SDS011;42217;50.422;7.210;2023-02-28T17:30:15;4.57;;;4.17;;
56307;SDS011;42217;50.422;7.210;2023-02-28T17:32:43;4.90;;;4.20;;
56307;SDS011;42217;50.422;7.210;2023-02-28T17:35:09;9.97;;;7.53;;
56307;SDS011;42217;50.422;7.210;2023-02-28T17:37:35;23.87;;;11.83;;
56307;SDS011;42217;50.422;7.210;2023-02-28T17:40:01;22.60;;;14.17;;
56307;SDS011;42217;50.422;7.210;2023-02-28T17:42:28;24.87;;;13.27;;
56307;SDS011;42217;50.422;7.210;2023-02-28T17:44:53;15.23;;;9.17;;